createdAt,value
2023-04-23T00:01:59.551Z,0.50
2023-04-23T00:04:27.322Z,0.57
2023-04-23T00:06:55.224Z,0.60
2023-04-23T00:09:23.154Z,0.60
2023-04-23T00:11:50.393Z,0.60
2023-04-23T00:14:17.515Z,0.70
2023-04-23T00:16:47.386Z,0.68
2023-04-23T00:19:16.590Z,0.57
2023-04-23T00:21:43.618Z,0.60
2023-04-23T00:24:16.038Z,0.60
2023-04-23T00:26:43.377Z,0.50
2023-04-23T00:29:16.603Z,0.60
2023-04-23T00:31:43.782Z,0.52
2023-04-23T00:34:11.015Z,0.60
2023-04-23T00:36:38.263Z,0.60
2023-04-23T00:39:06.030Z,0.60
2023-04-23T00:41:34.146Z,0.65
2023-04-23T00:44:01.245Z,0.60
2023-04-23T00:46:28.659Z,0.65
2023-04-23T00:48:55.837Z,0.60
2023-04-23T00:51:24.589Z,0.50
2023-04-23T00:53:55.007Z,0.60
2023-04-23T00:56:23.104Z,0.60
2023-04-23T00:58:51.784Z,0.70
2023-04-23T01:01:20.968Z,0.60
2023-04-23T01:03:49.583Z,0.70
2023-04-23T01:06:17.037Z,0.60
2023-04-23T01:08:47.292Z,0.60
2023-04-23T01:11:17.963Z,0.60
2023-04-23T01:13:45.584Z,0.60
2023-04-23T01:16:12.895Z,0.70
2023-04-23T01:18:41.206Z,0.60
2023-04-23T01:21:10.356Z,0.60
2023-04-23T01:23:37.834Z,0.63
2023-04-23T01:26:05.037Z,0.50
2023-04-23T01:28:32.826Z,0.70
2023-04-23T01:31:01.348Z,0.60
2023-04-23T01:33:31.764Z,0.70
2023-04-23T01:35:58.767Z,0.70
2023-04-23T01:38:26.195Z,0.60
2023-04-23T01:40:53.302Z,0.70
2023-04-23T01:43:23.038Z,0.70
2023-04-23T01:45:50.122Z,0.70
2023-04-23T01:48:17.558Z,0.70
2023-04-23T01:50:44.605Z,0.60
2023-04-23T01:53:12.073Z,0.60
2023-04-23T01:55:39.653Z,0.50
2023-04-23T01:58:07.647Z,0.70
2023-04-23T02:00:34.620Z,0.70
2023-04-23T02:03:01.988Z,0.68
2023-04-23T02:05:32.541Z,0.70
2023-04-23T02:07:59.439Z,0.70
2023-04-23T02:10:26.661Z,0.70
2023-04-23T02:12:53.874Z,0.70
2023-04-23T02:15:22.553Z,0.70
2023-04-23T02:17:52.333Z,0.77
2023-04-23T02:20:19.766Z,0.68
2023-04-23T02:22:47.299Z,0.70
2023-04-23T02:25:18.314Z,0.70
2023-04-23T02:27:45.544Z,0.65
2023-04-23T02:30:12.997Z,0.70
2023-04-23T02:32:41.145Z,0.60
2023-04-23T02:35:09.555Z,0.60
2023-04-23T02:37:39.752Z,0.77
2023-04-23T02:40:10.339Z,0.60
2023-04-23T02:42:37.681Z,0.60
2023-04-23T02:45:05.825Z,0.63
2023-04-23T02:47:37.580Z,0.70
2023-04-23T02:50:06.590Z,0.70
2023-04-23T02:52:34.137Z,0.70
2023-04-23T02:55:04.743Z,0.63
2023-04-23T02:57:34.807Z,0.70
2023-04-23T03:00:01.898Z,0.60
2023-04-23T03:02:36.951Z,0.80
2023-04-23T03:05:05.453Z,0.70
2023-04-23T03:07:32.598Z,0.70
2023-04-23T03:09:59.651Z,0.70
2023-04-23T03:12:26.626Z,0.63
2023-04-23T03:14:53.665Z,0.70
2023-04-23T03:17:26.260Z,0.70
2023-04-23T03:19:53.750Z,0.60
2023-04-23T03:22:24.730Z,0.70
2023-04-23T03:24:51.974Z,0.70
2023-04-23T03:27:20.450Z,0.70
2023-04-23T03:29:47.597Z,0.70
2023-04-23T03:32:14.713Z,0.60
2023-04-23T03:34:42.434Z,0.70
2023-04-23T03:37:10.050Z,0.60
2023-04-23T03:39:38.905Z,0.60
2023-04-23T03:42:07.286Z,0.60
2023-04-23T03:44:34.547Z,0.68
2023-04-23T03:47:01.806Z,0.60
2023-04-23T03:49:30.861Z,0.60
2023-04-23T03:51:59.573Z,0.60
2023-04-23T03:54:28.449Z,0.60
2023-04-23T03:57:12.968Z,0.60
2023-04-23T03:59:53.345Z,0.60
2023-04-23T04:02:20.695Z,0.60
2023-04-23T04:04:55.273Z,0.70
2023-04-23T04:07:24.621Z,0.70
2023-04-23T04:09:51.531Z,0.60
2023-04-23T04:12:20.355Z,0.60
2023-04-23T04:14:47.421Z,0.70
2023-04-23T04:17:16.232Z,0.60
2023-04-23T04:19:43.468Z,0.70
2023-04-23T04:22:10.499Z,0.70
2023-04-23T04:24:37.929Z,0.70
2023-04-23T04:27:06.113Z,0.60
2023-04-23T04:29:33.572Z,0.60
2023-04-23T04:32:05.528Z,0.60
2023-04-23T04:34:36.356Z,0.60
2023-04-23T04:37:03.395Z,0.60
2023-04-23T04:39:31.202Z,0.60
2023-04-23T04:42:00.000Z,0.60
2023-04-23T04:44:27.018Z,0.60
2023-04-23T04:46:54.429Z,0.60
2023-04-23T04:49:21.962Z,0.60
2023-04-23T04:51:52.265Z,0.60
2023-04-23T04:54:19.834Z,0.60
2023-04-23T04:57:09.096Z,0.50
2023-04-23T04:59:36.330Z,0.50
2023-04-23T05:02:09.239Z,0.60
2023-04-23T05:04:39.770Z,0.60
2023-04-23T05:07:07.780Z,0.60
2023-04-23T05:09:34.928Z,0.50
2023-04-23T05:12:05.011Z,0.60
2023-04-23T05:14:33.930Z,0.60
2023-04-23T05:17:05.471Z,0.60
2023-04-23T05:19:35.470Z,0.50
2023-04-23T05:22:05.039Z,0.50
2023-04-23T05:24:33.283Z,0.60
2023-04-23T05:27:03.507Z,0.50
2023-04-23T05:29:33.877Z,0.50
2023-04-23T05:32:06.523Z,0.50
2023-04-23T05:34:34.112Z,0.50
2023-04-23T05:37:11.508Z,0.47
2023-04-23T05:39:38.664Z,0.50
2023-04-23T05:42:07.984Z,0.50
2023-04-23T05:44:35.232Z,0.50
2023-04-23T05:47:02.294Z,0.50
2023-04-23T05:49:29.323Z,0.50
2023-04-23T05:51:59.450Z,0.50
2023-04-23T05:54:26.522Z,0.60
2023-04-23T05:56:56.965Z,0.50
2023-04-23T05:59:24.214Z,0.50
2023-04-23T06:01:51.336Z,0.50
2023-04-23T06:04:19.360Z,0.50
2023-04-23T06:06:48.864Z,0.50
2023-04-23T06:09:34.477Z,0.50
2023-04-23T06:12:03.426Z,0.50
2023-04-23T06:14:33.920Z,0.50
2023-04-23T06:17:04.482Z,0.50
2023-04-23T06:19:31.464Z,0.50
2023-04-23T06:21:58.520Z,0.50
2023-04-23T06:24:25.971Z,0.50
2023-04-23T06:26:53.310Z,0.50
2023-04-23T06:29:21.871Z,0.50
2023-04-23T06:32:02.730Z,0.50
2023-04-23T06:34:29.868Z,0.50
2023-04-23T06:37:02.628Z,0.50
2023-04-23T06:39:29.822Z,0.60
2023-04-23T06:41:58.213Z,0.50
2023-04-23T06:44:44.089Z,0.57
2023-04-23T06:47:11.571Z,0.57
2023-04-23T06:49:40.266Z,0.50
2023-04-23T06:52:20.454Z,0.50
2023-04-23T06:54:50.416Z,0.50
2023-04-23T06:57:22.072Z,0.50
2023-04-23T06:59:49.909Z,0.50
2023-04-23T07:02:19.759Z,0.55
2023-04-23T07:04:47.075Z,0.50
2023-04-23T07:07:14.285Z,0.50
2023-04-23T07:09:42.023Z,0.50
2023-04-23T07:12:10.287Z,0.55
2023-04-23T07:17:24.668Z,0.55
2023-04-23T07:19:52.299Z,0.50
2023-04-23T07:22:19.359Z,0.40
2023-04-23T07:24:46.780Z,0.50
2023-04-23T07:27:14.048Z,0.40
2023-04-23T07:29:41.114Z,0.50
2023-04-23T07:32:11.018Z,0.50
2023-04-23T07:34:39.363Z,0.50
2023-04-23T07:37:06.575Z,0.50
2023-04-23T07:39:34.879Z,0.60
2023-04-23T07:42:05.724Z,0.50
2023-04-23T07:44:33.635Z,0.50
2023-04-23T07:47:01.061Z,0.50
2023-04-23T07:49:28.664Z,0.40
2023-04-23T07:51:58.436Z,0.50
2023-04-23T07:54:27.367Z,0.50
2023-04-23T07:56:56.923Z,0.50
2023-04-23T07:59:23.969Z,0.52
2023-04-23T08:01:52.012Z,0.60
2023-04-23T08:04:22.279Z,0.50
2023-04-23T08:06:50.126Z,0.50
2023-04-23T08:09:17.468Z,0.60
2023-04-23T08:11:58.842Z,0.50
2023-04-23T08:14:26.150Z,0.40
2023-04-23T08:19:48.643Z,0.30
2023-04-23T08:22:17.581Z,0.40
2023-04-23T08:24:46.696Z,0.40
2023-04-23T08:27:14.137Z,0.40
2023-04-23T08:29:42.752Z,0.60
2023-04-23T08:32:32.670Z,0.60
2023-04-23T08:35:00.918Z,0.70
2023-04-23T08:37:31.414Z,0.40
2023-04-23T08:39:59.195Z,0.30
2023-04-23T08:42:59.938Z,0.40
2023-04-23T08:45:27.186Z,0.40
2023-04-23T08:48:08.563Z,0.40
2023-04-23T08:50:38.162Z,0.70
2023-04-23T08:53:08.972Z,0.70
2023-04-23T08:55:36.605Z,0.60
2023-04-23T08:58:07.516Z,0.60
2023-04-23T09:00:54.367Z,0.60
2023-04-23T09:03:22.766Z,0.60
2023-04-23T09:05:54.110Z,0.60
2023-04-23T09:08:41.401Z,0.60
2023-04-23T09:11:08.955Z,0.50
2023-04-23T09:13:37.173Z,0.60
2023-04-23T09:16:05.576Z,0.60
2023-04-23T09:18:32.549Z,0.50
2023-04-23T09:21:01.457Z,0.30
2023-04-23T09:23:28.800Z,0.30
2023-04-23T09:25:59.375Z,0.30
2023-04-23T09:28:44.585Z,0.40
2023-04-23T09:31:11.801Z,0.60
2023-04-23T09:33:41.889Z,0.60
2023-04-23T09:36:15.715Z,0.60
2023-04-23T09:38:42.885Z,0.60
2023-04-23T09:41:28.208Z,0.55
2023-04-23T09:44:02.545Z,0.50
2023-04-23T09:49:13.565Z,0.60
2023-04-23T09:51:44.043Z,0.60
2023-04-23T09:54:16.588Z,0.60
2023-04-23T09:56:44.324Z,0.60
2023-04-23T09:59:35.996Z,0.60
2023-04-23T10:02:14.453Z,0.47
2023-04-23T10:04:42.539Z,0.30
2023-04-23T10:07:18.946Z,0.30
2023-04-23T10:10:10.500Z,0.70
2023-04-23T10:12:53.652Z,0.60
2023-04-23T10:17:51.477Z,0.60
2023-04-23T10:20:21.371Z,0.55
2023-04-23T10:22:53.060Z,0.50
2023-04-23T10:25:29.478Z,0.60
2023-04-23T10:27:58.294Z,0.30
2023-04-23T10:30:25.701Z,0.50
2023-04-23T10:32:54.414Z,0.40
2023-04-23T10:35:24.252Z,0.60
2023-04-23T10:37:52.208Z,0.30
2023-04-23T10:40:30.170Z,0.30
2023-04-23T10:42:57.401Z,0.80
2023-04-23T10:45:44.191Z,0.70
2023-04-23T10:48:14.146Z,0.60
2023-04-23T10:51:06.933Z,0.55
2023-04-23T10:53:39.818Z,0.60
2023-04-23T10:56:07.980Z,0.50
2023-04-23T10:58:52.059Z,0.50
2023-04-23T11:01:20.961Z,0.50
2023-04-23T11:03:48.903Z,0.50
2023-04-23T11:06:21.041Z,0.50
2023-04-23T11:09:10.167Z,0.50
2023-04-23T11:11:41.295Z,0.50
2023-04-23T11:14:15.957Z,0.50
2023-04-23T11:17:07.069Z,0.50
2023-04-23T11:19:38.139Z,0.50
2023-04-23T11:22:23.070Z,0.50
2023-04-23T11:24:56.026Z,0.50
2023-04-23T11:27:27.072Z,0.52
2023-04-23T11:29:59.464Z,0.50
2023-04-23T11:32:49.795Z,0.50
2023-04-23T11:35:20.159Z,0.50
2023-04-23T11:37:51.630Z,0.50
2023-04-23T11:40:43.041Z,0.50
2023-04-23T11:43:10.317Z,0.50
2023-04-23T11:45:38.739Z,0.50
2023-04-23T11:48:13.867Z,0.40
2023-04-23T11:50:42.080Z,0.40
2023-04-23T11:53:11.416Z,0.40
2023-04-23T11:55:44.104Z,0.40
2023-04-23T11:58:12.074Z,0.40
2023-04-23T12:00:40.422Z,0.40
2023-04-23T12:03:07.950Z,0.40
2023-04-23T12:05:39.415Z,0.40
2023-04-23T12:08:21.641Z,0.40
2023-04-23T12:10:59.487Z,0.40
2023-04-23T12:13:33.934Z,0.40
2023-04-23T12:16:02.985Z,0.30
2023-04-23T12:18:39.339Z,0.50
2023-04-23T12:21:16.276Z,0.50
2023-04-23T12:23:45.351Z,0.50
2023-04-23T12:26:15.604Z,0.50
2023-04-23T12:29:01.556Z,0.50
2023-04-23T12:31:30.591Z,0.50
2023-04-23T12:34:08.525Z,0.40
2023-04-23T12:36:41.190Z,0.50
2023-04-23T12:39:24.295Z,0.40
2023-04-23T12:42:02.357Z,0.40
2023-04-23T12:44:58.065Z,0.40
2023-04-23T12:47:45.955Z,0.40
2023-04-23T12:50:22.557Z,0.40
2023-04-23T12:52:49.941Z,0.40
2023-04-23T12:55:17.029Z,0.40
2023-04-23T12:57:44.098Z,0.40
2023-04-23T13:00:12.479Z,0.40
2023-04-23T13:02:42.789Z,0.40
2023-04-23T13:05:10.145Z,0.40
2023-04-23T13:07:37.448Z,0.40
2023-04-23T13:10:10.904Z,0.40
2023-04-23T13:12:41.558Z,0.40
2023-04-23T13:15:15.748Z,0.40
2023-04-23T13:17:42.841Z,0.40
2023-04-23T13:20:10.428Z,0.40
2023-04-23T13:22:40.895Z,0.40
2023-04-23T13:25:08.894Z,0.40
2023-04-23T13:27:36.061Z,0.40
2023-04-23T13:30:03.441Z,0.47
2023-04-23T13:32:33.384Z,0.50
2023-04-23T13:35:03.113Z,0.50
2023-04-23T13:37:31.958Z,0.50
2023-04-23T13:39:59.158Z,0.40
2023-04-23T13:42:26.277Z,0.40
2023-04-23T13:44:53.472Z,0.40
2023-04-23T13:47:31.560Z,0.40
2023-04-23T13:50:07.013Z,0.50
2023-04-23T13:52:35.347Z,0.40
2023-04-23T13:55:04.049Z,0.40
2023-04-23T13:57:33.084Z,0.40
2023-04-23T14:00:00.833Z,0.40
2023-04-23T14:02:28.013Z,0.40
2023-04-23T14:04:55.413Z,0.40
2023-04-23T14:07:22.569Z,0.40
2023-04-23T14:09:52.859Z,0.40
2023-04-23T14:12:20.891Z,0.40
2023-04-23T14:14:49.411Z,0.40
2023-04-23T14:17:18.273Z,0.40
2023-04-23T14:19:45.288Z,0.40
2023-04-23T14:22:12.455Z,0.40
2023-04-23T14:24:49.576Z,0.40
2023-04-23T14:27:18.081Z,0.40
2023-04-23T14:29:56.968Z,0.40
2023-04-23T14:32:24.635Z,0.40
2023-04-23T14:34:51.831Z,0.40
2023-04-23T14:37:18.987Z,0.50
2023-04-23T14:39:48.373Z,0.40
2023-04-23T14:42:16.072Z,0.40
2023-04-23T14:44:44.071Z,0.50
2023-04-23T14:47:50.030Z,0.47
2023-04-23T14:50:28.436Z,0.40
2023-04-23T14:52:55.758Z,0.40
2023-04-23T14:55:23.098Z,0.40
2023-04-23T14:57:52.624Z,0.40
2023-04-23T15:00:21.699Z,0.32
2023-04-23T15:02:51.434Z,0.40
2023-04-23T15:05:40.285Z,0.40
2023-04-23T15:08:07.367Z,0.30
2023-04-23T15:10:34.429Z,0.30
2023-04-23T15:13:01.537Z,0.30
2023-04-23T15:15:45.276Z,0.40
2023-04-23T15:18:16.827Z,0.40
2023-04-23T15:20:46.329Z,0.40
2023-04-23T15:23:13.567Z,0.20
2023-04-23T15:25:43.467Z,0.20
2023-04-23T15:28:12.895Z,0.20
2023-04-23T15:30:40.206Z,0.20
2023-04-23T15:33:14.518Z,0.20
2023-04-23T15:35:44.796Z,0.30
2023-04-23T15:38:20.752Z,0.30
2023-04-23T15:40:49.786Z,0.30
2023-04-23T15:43:17.478Z,0.30
2023-04-23T15:45:48.541Z,0.30
2023-04-23T15:48:16.079Z,0.30
2023-04-23T15:50:43.976Z,0.30
2023-04-23T15:53:11.132Z,0.30
2023-04-23T15:55:39.920Z,0.30
2023-04-23T15:58:10.169Z,0.30
2023-04-23T16:00:38.660Z,0.30
2023-04-23T16:03:06.714Z,0.30
2023-04-23T16:05:36.093Z,0.30
2023-04-23T16:08:03.488Z,0.30
2023-04-23T16:10:47.019Z,0.30
2023-04-23T16:13:14.370Z,0.30
2023-04-23T16:15:41.805Z,0.30
2023-04-23T16:18:09.856Z,0.30
2023-04-23T16:20:37.017Z,0.30
2023-04-23T16:23:04.575Z,0.30
2023-04-23T16:36:56.476Z,0.20
2023-04-23T16:42:05.530Z,0.30
2023-04-23T16:44:33.735Z,0.30
2023-04-23T16:47:02.328Z,0.30
2023-04-23T16:49:55.538Z,0.30
2023-04-23T16:55:25.591Z,0.30
2023-04-23T17:23:38.484Z,0.40
2023-04-23T17:26:15.946Z,0.40
2023-04-23T17:28:51.778Z,0.30
2023-04-23T17:31:26.332Z,0.30
2023-04-23T17:36:32.168Z,0.35
2023-04-23T17:38:59.981Z,0.40
2023-04-23T17:41:28.824Z,0.40
2023-04-23T17:43:58.454Z,0.30
2023-04-23T17:49:10.810Z,0.30
2023-04-23T17:51:38.069Z,0.40
2023-04-23T17:54:35.422Z,0.30
2023-04-23T17:57:09.957Z,0.30
2023-04-23T17:59:50.721Z,0.30
2023-04-23T18:02:18.321Z,0.30
2023-04-23T18:07:33.669Z,0.30
2023-04-23T18:10:11.389Z,0.30
2023-04-23T18:12:43.443Z,0.30
2023-04-23T18:15:12.618Z,0.30
2023-04-23T18:17:40.939Z,0.30
2023-04-23T18:20:12.204Z,0.30
2023-04-23T18:22:41.820Z,0.30
2023-04-23T18:25:36.933Z,0.40
2023-04-23T18:30:31.547Z,0.40
2023-04-23T18:33:20.732Z,0.40
2023-04-23T18:35:48.296Z,0.30
2023-04-23T18:38:28.666Z,0.40
2023-04-23T18:40:55.892Z,0.40
2023-04-23T18:43:41.459Z,0.40
2023-04-23T18:46:12.297Z,0.40
2023-04-23T18:48:45.840Z,0.40
2023-04-23T18:51:31.109Z,0.40
2023-04-23T18:53:58.632Z,0.40
2023-04-23T18:59:08.567Z,0.30
2023-04-23T19:01:36.611Z,0.40
2023-04-23T19:04:04.085Z,0.40
2023-04-23T19:06:31.679Z,0.30
2023-04-23T19:08:59.597Z,0.40
2023-04-23T19:11:30.849Z,0.30
2023-04-23T19:13:58.029Z,0.40
2023-04-23T19:16:25.957Z,0.40
2023-04-23T19:18:53.250Z,0.43
2023-04-23T19:21:23.097Z,0.40
2023-04-23T19:23:53.012Z,0.40
2023-04-23T19:26:20.260Z,0.40
2023-04-23T19:28:47.414Z,0.40
2023-04-23T19:31:14.807Z,0.40
2023-04-23T19:33:45.415Z,0.40
2023-04-23T19:36:12.566Z,0.40
2023-04-23T19:38:40.051Z,0.40
2023-04-23T19:41:11.863Z,0.40
2023-04-23T19:43:48.071Z,0.40
2023-04-23T19:46:41.094Z,0.40
2023-04-23T19:49:09.366Z,0.40
2023-04-23T19:51:38.200Z,0.40
2023-04-23T19:54:07.592Z,0.40
2023-04-23T19:56:36.150Z,0.40
2023-04-23T19:59:03.206Z,0.40
2023-04-23T20:01:30.415Z,0.40
2023-04-23T20:03:57.628Z,0.40
2023-04-23T20:06:24.778Z,0.40
2023-04-23T20:09:10.425Z,0.40
2023-04-23T20:11:37.553Z,0.40
2023-04-23T20:14:06.051Z,0.50
2023-04-23T20:16:33.239Z,0.40
2023-04-23T20:19:02.618Z,0.40
2023-04-23T20:21:32.185Z,0.40
2023-04-23T20:24:14.095Z,0.40
2023-04-23T20:26:42.500Z,0.40
2023-04-23T20:29:09.870Z,0.45
2023-04-23T20:31:39.409Z,0.40
2023-04-23T20:34:07.131Z,0.40
2023-04-23T20:36:35.784Z,0.45
2023-04-23T20:39:06.154Z,0.40
2023-04-23T20:41:36.934Z,0.40
2023-04-23T20:44:07.498Z,0.40
2023-04-23T20:47:04.309Z,0.50
2023-04-23T20:52:16.083Z,0.50
2023-04-23T20:54:45.919Z,0.50
2023-04-23T20:57:17.949Z,0.50
2023-04-23T20:59:47.532Z,0.40
2023-04-23T21:02:15.409Z,0.47
2023-04-23T21:04:42.578Z,0.50
2023-04-23T21:07:13.468Z,0.40
2023-04-23T21:09:40.939Z,0.60
2023-04-23T21:12:08.588Z,0.45
2023-04-23T21:14:46.592Z,0.40
2023-04-23T21:17:13.643Z,0.40
2023-04-23T21:19:41.864Z,0.40
2023-04-23T21:22:09.301Z,0.50
2023-04-23T21:24:36.246Z,0.50
2023-04-23T21:27:03.940Z,0.50
2023-04-23T21:29:33.098Z,0.50
2023-04-23T21:32:01.689Z,0.50
2023-04-23T21:34:30.010Z,0.40
2023-04-23T21:37:11.564Z,0.50
2023-04-23T21:39:38.519Z,0.50
2023-04-23T21:42:07.679Z,0.40
2023-04-23T21:44:38.376Z,0.50
2023-04-23T21:47:11.637Z,0.50
2023-04-23T21:49:39.864Z,0.50
2023-04-23T21:52:09.028Z,0.50
2023-04-23T21:54:40.507Z,0.50
2023-04-23T21:57:09.082Z,0.40
2023-04-23T21:59:36.193Z,0.50
2023-04-23T22:02:03.337Z,0.40
2023-04-23T22:04:30.837Z,0.40
2023-04-23T22:07:03.544Z,0.40
2023-04-23T22:09:30.804Z,0.47
2023-04-23T22:12:02.300Z,0.50
2023-04-23T22:14:29.835Z,0.50
2023-04-23T22:17:02.010Z,0.50
2023-04-23T22:19:31.206Z,0.50
2023-04-23T22:21:58.451Z,0.50
2023-04-23T22:24:25.643Z,0.50
2023-04-23T22:26:52.720Z,0.40
2023-04-23T22:29:19.642Z,0.50
2023-04-23T22:31:46.633Z,0.40
2023-04-23T22:34:13.712Z,0.40
2023-04-23T22:36:43.291Z,0.50
2023-04-23T22:39:28.565Z,0.50
2023-04-23T22:41:56.775Z,0.50
2023-04-23T22:44:27.399Z,0.50
2023-04-23T22:46:56.277Z,0.50
2023-04-23T22:49:25.661Z,0.50
2023-04-23T22:51:58.761Z,0.45
2023-04-23T22:54:25.808Z,0.50
2023-04-23T22:56:53.236Z,0.57
2023-04-23T22:59:21.020Z,0.50
2023-04-23T23:01:48.496Z,0.50
2023-04-23T23:04:16.034Z,0.50
2023-04-23T23:06:43.407Z,0.50
2023-04-23T23:09:13.203Z,0.50
2023-04-23T23:11:40.235Z,0.52
2023-04-23T23:14:07.386Z,0.50
2023-04-23T23:16:39.761Z,0.50
2023-04-23T23:19:08.317Z,0.50
2023-04-23T23:21:35.357Z,0.50
2023-04-23T23:24:03.641Z,0.60
2023-04-23T23:26:30.882Z,0.50
2023-04-23T23:28:57.916Z,0.50
2023-04-23T23:31:26.107Z,0.60
2023-04-23T23:33:53.805Z,0.50
2023-04-23T23:36:21.060Z,0.50
2023-04-23T23:38:48.072Z,0.50
2023-04-23T23:41:15.105Z,0.52
2023-04-23T23:43:43.448Z,0.60
2023-04-23T23:46:11.776Z,0.55
2023-04-23T23:48:38.914Z,0.50
2023-04-23T23:51:05.900Z,0.50
2023-04-23T23:53:32.847Z,0.50
2023-04-23T23:56:00.437Z,0.60
2023-04-23T23:58:29.478Z,0.60
